Time,TemperatureF,DewpointF,PressureIn,WindDirection,WindDirectionDegrees,WindSpeedMPH,WindSpeedGustMPH,Humidity,HourlyPrecipIn,Conditions,Clouds,dailyrainin,SoftwareType,DateUTC
2013-01-20 00:04:00,33.6,31.5,30.21,SSW,209,0.0,0.0,92,0.00,,SKC,0.01,VWS V14.01,2013-01-20 06:04:00,
2013-01-20 00:09:00,33.3,31.2,30.21,SSW,209,0.0,0.0,92,0.00,,SKC,0.00,VWS V14.01,2013-01-20 06:09:00,
2013-01-20 00:14:00,33.1,31.0,30.20,SSW,209,0.0,0.0,92,0.00,,SKC,0.00,VWS V14.01,2013-01-20 06:14:00,
2013-01-20 00:19:00,33.0,30.9,30.20,SSW,209,0.0,0.0,92,0.00,,SKC,0.00,VWS V14.01,2013-01-20 06:19:00,
2013-01-20 00:24:00,32.9,30.8,30.20,SSW,209,0.0,1.0,92,0.00,,SKC,0.00,VWS V14.01,2013-01-20 06:24:00,
2013-01-20 00:29:00,33.2,31.4,30.20,SSW,209,0.0,0.0,93,0.00,,SKC,0.00,VWS V14.01,2013-01-20 06:29:00,
2013-01-20 00:33:00,33.3,31.5,30.20,SSW,209,0.0,0.0,93,0.00,,SKC,0.00,VWS V14.01,2013-01-20 06:33:00,
2013-01-20 00:39:00,33.3,31.5,30.20,SSW,209,0.0,0.0,93,0.00,,SKC,0.00,VWS V14.01,2013-01-20 06:39:00,
2013-01-20 00:44:00,33.2,31.4,30.20,SSW,209,0.0,0.0,93,0.00,,SKC,0.00,VWS V14.01,2013-01-20 06:44:00,
2013-01-20 00:49:00,33.2,31.4,30.20,SSW,209,0.0,0.0,93,0.00,,SKC,0.00,VWS V14.01,2013-01-20 06:49:00,
2013-01-20 00:54:00,33.2,31.4,30.20,SSW,209,0.0,0.0,93,0.00,,SKC,0.00,VWS V14.01,2013-01-20 06:54:00,
2013-01-20 00:59:00,33.1,31.3,30.20,SSW,209,0.0,0.0,93,0.00,,SKC,0.00,VWS V14.01,2013-01-20 06:59:00,
2013-01-20 01:04:00,33.0,31.2,30.20,SSW,209,0.0,0.0,93,0.00,,SKC,0.00,VWS V14.01,2013-01-20 07:04:00,
2013-01-20 01:09:00,32.7,30.9,30.20,SSW,209,0.0,0.0,93,0.00,,SKC,0.00,VWS V14.01,2013-01-20 07:09:00,
2013-01-20 01:14:00,32.5,30.7,30.20,SSW,209,0.0,0.0,93,0.00,,SKC,0.00,VWS V14.01,2013-01-20 07:14:00,
2013-01-20 01:19:00,32.4,30.6,30.20,SSW,209,0.0,0.0,93,0.00,,SKC,0.00,VWS V14.01,2013-01-20 07:19:00,
2013-01-20 01:24:00,32.2,30.4,30.20,SSW,209,0.0,0.0,93,0.00,,SKC,0.00,VWS V14.01,2013-01-20 07:24:00,
2013-01-20 01:28:00,31.9,30.1,30.20,SSW,209,0.0,0.0,93,0.00,,SKC,0.00,VWS V14.01,2013-01-20 07:28:00,
2013-01-20 01:33:00,31.8,30.0,30.20,SSW,209,0.0,0.0,93,0.00,,SKC,0.00,VWS V14.01,2013-01-20 07:33:00,
2013-01-20 01:38:00,31.7,29.9,30.20,SSW,209,0.0,0.0,93,0.00,,SKC,0.00,VWS V14.01,2013-01-20 07:38:00,
2013-01-20 01:43:00,31.9,30.1,30.21,SSW,209,0.0,0.0,93,0.00,,SKC,0.00,VWS V14.01,2013-01-20 07:43:00,
2013-01-20 01:48:00,32.0,30.2,30.21,SSW,209,0.0,0.0,93,0.00,,SKC,0.00,VWS V14.01,2013-01-20 07:48:00,
2013-01-20 01:54:00,32.1,30.3,30.21,SSW,209,0.0,0.0,93,0.00,,SKC,0.00,VWS V14.01,2013-01-20 07:54:00,
2013-01-20 01:59:00,32.0,30.2,30.21,SSW,209,0.0,0.0,93,0.00,,SKC,0.00,VWS V14.01,2013-01-20 07:59:00,
2013-01-20 02:04:00,31.7,29.9,30.21,SSW,209,0.0,0.0,93,0.00,,SKC,0.00,VWS V14.01,2013-01-20 08:04:00,
2013-01-20 02:09:00,31.5,29.7,30.21,SSW,209,0.0,0.0,93,0.00,,SKC,0.00,VWS V14.01,2013-01-20 08:09:00,
2013-01-20 02:14:00,31.3,29.5,30.21,SSW,209,0.0,0.0,93,0.00,,SKC,0.00,VWS V14.01,2013-01-20 08:14:00,
2013-01-20 02:19:00,31.2,29.4,30.21,SSW,209,0.0,0.0,93,0.00,,SKC,0.00,VWS V14.01,2013-01-20 08:19:00,
2013-01-20 02:24:00,31.0,29.2,30.21,SSW,209,0.0,0.0,93,0.00,,SKC,0.00,VWS V14.01,2013-01-20 08:24:00,
2013-01-20 02:29:00,30.9,29.1,30.21,SSW,209,0.0,0.0,93,0.00,,SKC,0.00,VWS V14.01,2013-01-20 08:29:00,
2013-01-20 02:34:00,30.9,29.1,30.21,SSW,209,0.0,0.0,93,0.00,,SKC,0.00,VWS V14.01,2013-01-20 08:34:00,
2013-01-20 02:39:00,31.0,29.2,30.21,SSW,209,0.0,0.0,93,0.00,,SKC,0.00,VWS V14.01,2013-01-20 08:39:00,
2013-01-20 02:44:00,31.1,29.3,30.21,SSW,209,0.0,0.0,93,0.00,,SKC,0.00,VWS V14.01,2013-01-20 08:44:00,
2013-01-20 02:50:00,31.0,29.2,30.21,SSW,209,0.0,0.0,93,0.00,,SKC,0.00,VWS V14.01,2013-01-20 08:50:00,
2013-01-20 02:54:00,30.9,29.1,30.21,SSW,209,0.0,0.0,93,0.00,,SKC,0.00,VWS V14.01,2013-01-20 08:54:00,
2013-01-20 02:59:00,30.7,28.9,30.21,SSW,209,0.0,0.0,93,0.00,,SKC,0.00,VWS V14.01,2013-01-20 08:59:00,
2013-01-20 03:05:00,30.6,28.8,30.21,SSW,209,0.0,0.0,93,0.00,,SKC,0.00,VWS V14.01,2013-01-20 09:05:00,
2013-01-20 03:10:00,30.4,28.6,30.22,SSW,209,0.0,0.0,93,0.00,,SKC,0.00,VWS V14.01,2013-01-20 09:10:00,
2013-01-20 03:15:00,30.3,28.5,30.22,SSW,209,0.0,0.0,93,0.00,,SKC,0.00,VWS V14.01,2013-01-20 09:15:00,
2013-01-20 03:20:00,30.2,28.4,30.21,SSW,209,0.0,0.0,93,0.00,,SKC,0.00,VWS V14.01,2013-01-20 09:20:00,
2013-01-20 03:25:00,30.1,28.3,30.21,SSW,209,0.0,0.0,93,0.00,,SKC,0.00,VWS V14.01,2013-01-20 09:25:00,
2013-01-20 03:30:00,29.9,28.1,30.22,SSW,209,0.0,0.0,93,0.00,,SKC,0.00,VWS V14.01,2013-01-20 09:30:00,
2013-01-20 03:35:00,29.8,28.0,30.21,SSW,209,0.0,0.0,93,0.00,,SKC,0.00,VWS V14.01,2013-01-20 09:35:00,
2013-01-20 03:40:00,29.7,27.9,30.21,SSW,209,0.0,0.0,93,0.00,,SKC,0.00,VWS V14.01,2013-01-20 09:40:00,
2013-01-20 03:45:00,29.7,27.9,30.21,SSW,209,0.0,0.0,93,0.00,,SKC,0.00,VWS V14.01,2013-01-20 09:45:00,
2013-01-20 03:50:00,29.7,27.9,30.21,SSW,209,0.0,0.0,93,0.00,,SKC,0.00,VWS V14.01,2013-01-20 09:50:00,
2013-01-20 03:55:00,29.7,27.9,30.21,SSW,209,0.0,0.0,93,0.00,,SKC,0.00,VWS V14.01,2013-01-20 09:55:00,
2013-01-20 04:00:00,29.6,27.8,30.21,SSW,209,0.0,0.0,93,0.00,,SKC,0.00,VWS V14.01,2013-01-20 10:00:00,
2013-01-20 04:05:00,29.6,28.1,30.21,SSW,209,0.0,0.0,94,0.00,,SKC,0.00,VWS V14.01,2013-01-20 10:05:00,
2013-01-20 04:11:00,29.6,28.1,30.21,SSW,209,0.0,0.0,94,0.00,,SKC,0.00,VWS V14.01,2013-01-20 10:11:00,
2013-01-20 04:16:00,29.6,28.1,30.21,SSW,209,0.0,0.0,94,0.00,,SKC,0.00,VWS V14.01,2013-01-20 10:16:00,
2013-01-20 04:20:00,29.6,28.1,30.21,SSW,209,0.0,0.0,94,0.00,,SKC,0.00,VWS V14.01,2013-01-20 10:20:00,
2013-01-20 04:25:00,29.5,28.0,30.21,SSW,209,0.0,0.0,94,0.00,,SKC,0.00,VWS V14.01,2013-01-20 10:25:00,
2013-01-20 04:31:00,29.6,28.1,30.21,SSW,209,0.0,0.0,94,0.00,,SKC,0.00,VWS V14.01,2013-01-20 10:31:00,
2013-01-20 04:36:00,29.7,28.2,30.21,SSW,209,0.0,0.0,94,0.00,,SKC,0.00,VWS V14.01,2013-01-20 10:36:00,
2013-01-20 04:41:00,29.7,28.2,30.21,SSW,209,0.0,0.0,94,0.00,,SKC,0.00,VWS V14.01,2013-01-20 10:41:00,
2013-01-20 04:46:00,29.6,28.1,30.21,SSW,209,0.0,0.0,94,0.00,,SKC,0.00,VWS V14.01,2013-01-20 10:46:00,
2013-01-20 04:51:00,29.5,28.0,30.21,SSW,209,0.0,0.0,94,0.00,,SKC,0.00,VWS V14.01,2013-01-20 10:51:00,
2013-01-20 04:56:00,29.4,27.9,30.22,SSW,209,0.0,0.0,94,0.00,,SKC,0.00,VWS V14.01,2013-01-20 10:56:00,
2013-01-20 05:01:00,29.5,28.0,30.22,SSW,209,0.0,0.0,94,0.00,,SKC,0.00,VWS V14.01,2013-01-20 11:01:00,
2013-01-20 05:06:00,29.6,28.1,30.22,SSW,209,0.0,0.0,94,0.00,,SKC,0.00,VWS V14.01,2013-01-20 11:06:00,
2013-01-20 05:11:00,29.5,28.0,30.22,SSW,209,0.0,0.0,94,0.00,,SKC,0.00,VWS V14.01,2013-01-20 11:11:00,
2013-01-20 05:16:00,29.4,27.9,30.22,SSW,209,0.0,0.0,94,0.00,,SKC,0.00,VWS V14.01,2013-01-20 11:16:00,
2013-01-20 05:21:00,29.2,27.7,30.22,SSW,209,0.0,0.0,94,0.00,,SKC,0.00,VWS V14.01,2013-01-20 11:21:00,
2013-01-20 05:26:00,29.2,27.7,30.22,SSW,209,0.0,0.0,94,0.00,,SKC,0.00,VWS V14.01,2013-01-20 11:26:00,
2013-01-20 05:31:00,29.0,27.5,30.22,SSW,209,0.0,0.0,94,0.00,,SKC,0.00,VWS V14.01,2013-01-20 11:31:00,
2013-01-20 05:36:00,28.9,27.4,30.22,SSW,209,0.0,0.0,94,0.00,,SKC,0.00,VWS V14.01,2013-01-20 11:36:00,
2013-01-20 05:41:00,28.8,27.3,30.22,SSW,209,0.0,0.0,94,0.00,,SKC,0.00,VWS V14.01,2013-01-20 11:41:00,
2013-01-20 05:47:00,28.8,27.3,30.22,SSW,209,0.0,0.0,94,0.00,,SKC,0.00,VWS V14.01,2013-01-20 11:47:00,
2013-01-20 05:52:00,29.1,27.6,30.22,SSW,209,0.0,0.0,94,0.00,,SKC,0.00,VWS V14.01,2013-01-20 11:52:00,
2013-01-20 05:57:00,29.2,27.7,30.22,SSW,209,0.0,0.0,94,0.00,,SKC,0.00,VWS V14.01,2013-01-20 11:57:00,
2013-01-20 06:02:00,29.2,27.7,30.21,SSW,209,0.0,0.0,94,0.00,,SKC,0.00,VWS V14.01,2013-01-20 12:02:00,
2013-01-20 06:07:00,29.1,27.6,30.22,SSW,209,0.0,0.0,94,0.00,,SKC,0.00,VWS V14.01,2013-01-20 12:07:00,
2013-01-20 06:12:00,29.0,27.5,30.22,SSW,209,0.0,0.0,94,0.00,,SKC,0.00,VWS V14.01,2013-01-20 12:12:00,
2013-01-20 06:17:00,28.9,27.4,30.22,SSW,209,0.0,0.0,94,0.00,,SKC,0.00,VWS V14.01,2013-01-20 12:17:00,
2013-01-20 06:22:00,28.8,27.3,30.22,SSW,209,0.0,0.0,94,0.00,,SKC,0.00,VWS V14.01,2013-01-20 12:22:00,
2013-01-20 06:27:00,28.9,27.4,30.22,SSW,209,0.0,0.0,94,0.00,,SKC,0.00,VWS V14.01,2013-01-20 12:27:00,
2013-01-20 06:32:00,28.9,27.4,30.22,SSW,209,0.0,0.0,94,0.00,,SKC,0.00,VWS V14.01,2013-01-20 12:32:00,
2013-01-20 06:37:00,28.9,27.4,30.22,SSW,209,0.0,0.0,94,0.00,,SKC,0.00,VWS V14.01,2013-01-20 12:37:00,
2013-01-20 06:42:00,28.9,27.4,30.22,SSW,209,0.0,0.0,94,0.00,,SKC,0.00,VWS V14.01,2013-01-20 12:42:00,
2013-01-20 06:47:00,28.9,27.4,30.22,SSW,209,0.0,0.0,94,0.00,,SKC,0.00,VWS V14.01,2013-01-20 12:47:00,
2013-01-20 06:52:00,28.9,27.4,30.22,SSW,209,0.0,0.0,94,0.00,,SKC,0.00,VWS V14.01,2013-01-20 12:52:00,
2013-01-20 06:57:00,29.0,27.5,30.23,SSW,209,0.0,0.0,94,0.00,,SKC,0.00,VWS V14.01,2013-01-20 12:57:00,
2013-01-20 07:02:00,28.9,27.4,30.22,SSW,209,0.0,0.0,94,0.00,,SKC,0.00,VWS V14.01,2013-01-20 13:02:00,
2013-01-20 07:07:00,28.9,27.4,30.23,SSW,209,0.0,0.0,94,0.00,,SKC,0.00,VWS V14.01,2013-01-20 13:07:00,
2013-01-20 07:13:00,28.9,27.4,30.23,SSW,209,0.0,0.0,94,0.00,,SKC,0.00,VWS V14.01,2013-01-20 13:13:00,
2013-01-20 07:18:00,29.2,27.7,30.23,SSW,209,0.0,0.0,94,0.00,,SKC,0.00,VWS V14.01,2013-01-20 13:18:00,
2013-01-20 07:23:00,29.4,27.9,30.23,SSW,209,0.0,0.0,94,0.00,,SKC,0.00,VWS V14.01,2013-01-20 13:23:00,
2013-01-20 07:28:00,29.6,28.1,30.23,SSW,209,0.0,0.0,94,0.00,,SKC,0.00,VWS V14.01,2013-01-20 13:28:00,
2013-01-20 07:33:00,30.0,28.5,30.23,SSW,209,0.0,0.0,94,0.00,,SKC,0.00,VWS V14.01,2013-01-20 13:33:00,
2013-01-20 07:38:00,30.6,29.1,30.23,SSW,209,0.0,0.0,94,0.00,,SKC,0.00,VWS V14.01,2013-01-20 13:38:00,
2013-01-20 07:43:00,31.5,30.0,30.23,North,360,0.0,0.0,94,0.00,,SKC,0.00,VWS V14.01,2013-01-20 13:43:00,
2013-01-20 07:48:00,32.0,30.7,30.24,North,360,0.0,0.0,95,0.00,,SKC,0.00,VWS V14.01,2013-01-20 13:48:00,
2013-01-20 07:53:00,32.2,30.9,30.23,North,360,0.0,0.0,95,0.00,,SKC,0.00,VWS V14.01,2013-01-20 13:53:00,
2013-01-20 07:58:00,32.4,31.1,30.23,North,360,0.0,0.0,95,0.00,,SKC,0.00,VWS V14.01,2013-01-20 13:58:00,
2013-01-20 08:03:00,32.7,31.4,30.23,North,360,0.0,0.0,95,0.00,,SKC,0.00,VWS V14.01,2013-01-20 14:03:00,
2013-01-20 08:08:00,33.4,32.1,30.24,North,360,0.0,0.0,95,0.00,,SKC,0.00,VWS V14.01,2013-01-20 14:08:00,
2013-01-20 08:14:00,33.8,32.5,30.23,North,360,0.0,0.0,95,0.00,,SKC,0.00,VWS V14.01,2013-01-20 14:14:00,
2013-01-20 08:19:00,34.4,33.1,30.24,North,360,0.0,0.0,95,0.00,,SKC,0.00,VWS V14.01,2013-01-20 14:19:00,
2013-01-20 08:24:00,35.2,33.9,30.24,North,360,0.0,0.0,95,0.00,,SKC,0.00,VWS V14.01,2013-01-20 14:24:00,
2013-01-20 08:29:00,35.9,34.6,30.23,North,360,0.0,0.0,95,0.00,,SKC,0.00,VWS V14.01,2013-01-20 14:29:00,
2013-01-20 08:34:00,36.6,35.3,30.23,North,360,0.0,0.0,95,0.00,,SKC,0.00,VWS V14.01,2013-01-20 14:34:00,
2013-01-20 08:39:00,37.2,35.9,30.23,North,360,0.0,0.0,95,0.00,,SKC,0.00,VWS V14.01,2013-01-20 14:39:00,
2013-01-20 08:44:00,38.0,36.7,30.23,North,360,0.0,0.0,95,0.00,,SKC,0.00,VWS V14.01,2013-01-20 14:44:00,
2013-01-20 08:49:00,38.9,37.6,30.23,North,360,0.0,0.0,95,0.00,,SKC,0.00,VWS V14.01,2013-01-20 14:49:00,
2013-01-20 08:54:00,39.5,38.2,30.23,North,360,0.0,0.0,95,0.00,,SKC,0.00,VWS V14.01,2013-01-20 14:54:00,
2013-01-20 08:59:00,40.2,38.9,30.23,North,360,0.0,0.0,95,0.00,,SKC,0.00,VWS V14.01,2013-01-20 14:59:00,
2013-01-20 09:04:00,40.5,39.2,30.23,North,360,0.0,0.0,95,0.00,,SKC,0.00,VWS V14.01,2013-01-20 15:04:00,
2013-01-20 09:09:00,42.3,40.7,30.23,North,360,0.0,1.0,94,0.00,,SKC,0.00,VWS V14.01,2013-01-20 15:09:00,
2013-01-20 09:15:00,43.4,41.2,30.23,North,360,0.0,0.0,92,0.00,,SKC,0.00,VWS V14.01,2013-01-20 15:15:00,
2013-01-20 09:20:00,44.2,41.7,30.23,North,360,1.0,1.0,91,0.00,,SKC,0.00,VWS V14.01,2013-01-20 15:20:00,
2013-01-20 09:25:00,45.2,41.9,30.23,NE,45,1.0,1.0,88,0.00,,SKC,0.00,VWS V14.01,2013-01-20 15:25:00,
2013-01-20 09:30:00,46.1,42.2,30.23,NE,45,0.0,0.0,86,0.00,,SKC,0.00,VWS V14.01,2013-01-20 15:30:00,
2013-01-20 09:35:00,46.8,42.5,30.23,NE,45,0.0,0.0,85,0.00,,SKC,0.00,VWS V14.01,2013-01-20 15:35:00,
2013-01-20 09:40:00,47.6,43.0,30.23,NE,45,0.0,0.0,84,0.00,,SKC,0.00,VWS V14.01,2013-01-20 15:40:00,
2013-01-20 09:45:00,48.7,42.8,30.23,NE,45,0.0,0.0,80,0.00,,SKC,0.00,VWS V14.01,2013-01-20 15:45:00,
2013-01-20 09:50:00,49.8,43.2,30.22,NE,45,1.0,1.0,78,0.00,,SKC,0.00,VWS V14.01,2013-01-20 15:50:00,
2013-01-20 09:55:00,50.9,42.6,30.22,West,261,3.0,4.0,73,0.00,,SKC,0.00,VWS V14.01,2013-01-20 15:55:00,
2013-01-20 10:00:00,51.7,42.6,30.22,WSW,252,0.0,1.0,71,0.00,,SKC,0.00,VWS V14.01,2013-01-20 16:00:00,
2013-01-20 10:05:00,52.1,42.6,30.22,WSW,252,0.0,1.0,70,0.00,,SKC,0.00,VWS V14.01,2013-01-20 16:05:00,
2013-01-20 10:10:00,53.4,42.7,30.22,West,281,1.0,2.0,67,0.00,,SKC,0.00,VWS V14.01,2013-01-20 16:10:00,
2013-01-20 10:15:00,53.8,42.7,30.21,WNW,283,0.0,0.0,66,0.00,,SKC,0.00,VWS V14.01,2013-01-20 16:15:00,
2013-01-20 10:20:00,54.2,41.1,30.21,WSW,254,2.0,2.0,61,0.00,,SKC,0.00,VWS V14.01,2013-01-20 16:20:00,
2013-01-20 10:25:00,54.4,41.2,30.21,West,260,0.0,2.0,61,0.00,,SKC,0.00,VWS V14.01,2013-01-20 16:25:00,
2013-01-20 10:30:00,54.8,41.6,30.21,West,261,0.0,0.0,61,0.00,,SKC,0.00,VWS V14.01,2013-01-20 16:30:00,
2013-01-20 10:35:00,55.4,40.9,30.21,North,360,0.0,2.0,58,0.00,,SKC,0.00,VWS V14.01,2013-01-20 16:35:00,
2013-01-20 10:41:00,55.8,40.4,30.20,West,263,4.0,4.0,56,0.00,,SKC,0.00,VWS V14.01,2013-01-20 16:41:00,
2013-01-20 10:46:00,55.9,40.0,30.20,North,349,2.0,6.0,55,0.00,,SKC,0.00,VWS V14.01,2013-01-20 16:46:00,
2013-01-20 10:51:00,56.2,40.7,30.20,NE,46,0.0,0.0,56,0.00,,SKC,0.00,VWS V14.01,2013-01-20 16:51:00,
2013-01-20 10:56:00,56.6,40.2,30.20,NE,40,0.0,2.0,54,0.00,,SKC,0.00,VWS V14.01,2013-01-20 16:56:00,
2013-01-20 11:01:00,56.8,40.3,30.19,WNW,299,0.0,5.0,54,0.00,,SKC,0.00,VWS V14.01,2013-01-20 17:01:00,
2013-01-20 11:06:00,57.0,41.0,30.19,WSW,254,1.0,3.0,55,0.00,,SKC,0.00,VWS V14.01,2013-01-20 17:06:00,
2013-01-20 11:11:00,57.2,39.8,30.19,NNW,327,2.0,2.0,52,0.00,,SKC,0.00,VWS V14.01,2013-01-20 17:11:00,
2013-01-20 11:16:00,57.3,40.3,30.19,NNE,28,0.0,0.0,53,0.00,,SKC,0.00,VWS V14.01,2013-01-20 17:16:00,
2013-01-20 11:21:00,57.3,38.8,30.18,WSW,237,5.0,5.0,50,0.00,,SKC,0.00,VWS V14.01,2013-01-20 17:21:00,
2013-01-20 11:26:00,57.7,39.7,30.18,NE,46,3.0,3.0,51,0.00,,SKC,0.00,VWS V14.01,2013-01-20 17:26:00,
2013-01-20 11:31:00,57.9,40.4,30.18,North,355,4.0,4.0,52,0.00,,SKC,0.00,VWS V14.01,2013-01-20 17:31:00,
2013-01-20 11:36:00,58.0,40.0,30.17,ENE,65,4.0,4.0,51,0.00,,SKC,0.00,VWS V14.01,2013-01-20 17:36:00,
2013-01-20 11:41:00,58.0,39.5,30.17,NNW,342,1.0,2.0,50,0.00,,SKC,0.00,VWS V14.01,2013-01-20 17:41:00,
2013-01-20 11:46:00,58.4,39.8,30.17,NNW,345,3.0,7.0,50,0.00,,SKC,0.00,VWS V14.01,2013-01-20 17:46:00,
2013-01-20 11:51:00,58.4,39.8,30.16,NNE,32,0.0,1.0,50,0.00,,SKC,0.00,VWS V14.01,2013-01-20 17:51:00,
2013-01-20 11:56:00,58.6,40.0,30.16,WSW,248,0.0,3.0,50,0.00,,SKC,0.00,VWS V14.01,2013-01-20 17:56:00,
2013-01-20 12:01:00,58.6,41.0,30.16,ENE,57,0.0,0.0,52,0.00,,SKC,0.00,VWS V14.01,2013-01-20 18:01:00,
2013-01-20 12:07:00,58.8,41.2,30.16,West,278,0.0,2.0,52,0.00,,SKC,0.00,VWS V14.01,2013-01-20 18:07:00,
2013-01-20 12:12:00,59.0,40.4,30.15,ENE,66,2.0,3.0,50,0.00,,SKC,0.00,VWS V14.01,2013-01-20 18:12:00,
2013-01-20 12:17:00,58.7,40.1,30.15,NNE,26,0.0,4.0,50,0.00,,SKC,0.00,VWS V14.01,2013-01-20 18:17:00,
2013-01-20 12:22:00,58.5,40.5,30.15,NNE,13,1.0,2.0,51,0.00,,SKC,0.00,VWS V14.01,2013-01-20 18:22:00,
2013-01-20 12:28:00,58.8,40.7,30.15,West,264,4.0,4.0,51,0.00,,SKC,0.00,VWS V14.01,2013-01-20 18:28:00,
2013-01-20 12:33:00,59.1,40.5,30.15,ENE,57,0.0,3.0,50,0.00,,SKC,0.00,VWS V14.01,2013-01-20 18:33:00,
2013-01-20 12:38:00,59.6,40.4,30.14,NE,46,0.0,1.0,49,0.00,,SKC,0.00,VWS V14.01,2013-01-20 18:38:00,
2013-01-20 12:43:00,59.8,40.6,30.14,North,355,0.0,2.0,49,0.00,,SKC,0.00,VWS V14.01,2013-01-20 18:43:00,
2013-01-20 12:48:00,60.0,40.3,30.14,SW,215,1.0,5.0,48,0.00,,SKC,0.00,VWS V14.01,2013-01-20 18:48:00,
2013-01-20 12:53:00,60.0,40.8,30.14,North,355,1.0,2.0,49,0.00,,SKC,0.00,VWS V14.01,2013-01-20 18:53:00,
2013-01-20 12:58:00,60.3,41.1,30.14,WSW,252,3.0,5.0,49,0.00,,SKC,0.00,VWS V14.01,2013-01-20 18:58:00,
2013-01-20 13:03:00,60.1,41.4,30.14,WSW,240,0.0,4.0,50,0.00,,SKC,0.00,VWS V14.01,2013-01-20 19:03:00,
2013-01-20 13:08:00,59.9,42.2,30.14,NW,315,1.0,1.0,52,0.00,,SKC,0.00,VWS V14.01,2013-01-20 19:08:00,
2013-01-20 13:13:00,60.3,41.1,30.14,West,281,3.0,3.0,49,0.00,,SKC,0.00,VWS V14.01,2013-01-20 19:13:00,
2013-01-20 13:18:00,60.4,41.2,30.14,WNW,286,0.0,2.0,49,0.00,,SKC,0.00,VWS V14.01,2013-01-20 19:18:00,
2013-01-20 13:23:00,60.5,41.8,30.13,WSW,245,3.0,3.0,50,0.00,,SKC,0.00,VWS V14.01,2013-01-20 19:23:00,
2013-01-20 13:28:00,60.7,41.5,30.13,NW,306,1.0,2.0,49,0.00,,SKC,0.00,VWS V14.01,2013-01-20 19:28:00,
2013-01-20 13:33:00,61.0,41.7,30.13,West,266,0.0,0.0,49,0.00,,SKC,0.00,VWS V14.01,2013-01-20 19:33:00,
2013-01-20 13:38:00,61.0,41.2,30.12,NE,47,2.0,3.0,48,0.00,,SKC,0.00,VWS V14.01,2013-01-20 19:38:00,
2013-01-20 13:43:00,61.1,41.8,30.12,NE,44,0.0,0.0,49,0.00,,SKC,0.00,VWS V14.01,2013-01-20 19:43:00,
2013-01-20 13:48:00,61.6,42.3,30.12,West,265,0.0,1.0,49,0.00,,SKC,0.00,VWS V14.01,2013-01-20 19:48:00,
2013-01-20 13:53:00,61.7,42.4,30.12,West,260,1.0,3.0,49,0.00,,SKC,0.00,VWS V14.01,2013-01-20 19:53:00,
2013-01-20 13:58:00,61.8,41.9,30.12,North,5,0.0,0.0,48,0.00,,SKC,0.00,VWS V14.01,2013-01-20 19:58:00,
2013-01-20 14:03:00,61.9,42.0,30.12,ENE,57,0.0,0.0,48,0.00,,SKC,0.00,VWS V14.01,2013-01-20 20:03:00,
2013-01-20 14:08:00,62.0,42.6,30.12,West,277,0.0,1.0,49,0.00,,SKC,0.00,VWS V14.01,2013-01-20 20:08:00,
2013-01-20 14:14:00,62.0,42.6,30.12,West,280,0.0,2.0,49,0.00,,SKC,0.00,VWS V14.01,2013-01-20 20:14:00,
2013-01-20 14:19:00,62.2,42.3,30.12,WNW,298,0.0,2.0,48,0.00,,SKC,0.00,VWS V14.01,2013-01-20 20:19:00,
2013-01-20 14:24:00,62.6,43.2,30.12,WNW,298,1.0,1.0,49,0.00,,SKC,0.00,VWS V14.01,2013-01-20 20:24:00,
2013-01-20 14:29:00,62.7,42.8,30.12,East,84,0.0,0.0,48,0.00,,SKC,0.00,VWS V14.01,2013-01-20 20:29:00,
2013-01-20 14:34:00,62.9,42.9,30.11,NNW,331,0.0,1.0,48,0.00,,SKC,0.00,VWS V14.01,2013-01-20 20:34:00,
2013-01-20 14:39:00,63.2,43.2,30.11,NNW,331,0.0,0.0,48,0.00,,SKC,0.00,VWS V14.01,2013-01-20 20:39:00,
2013-01-20 14:44:00,63.3,42.8,30.11,ENE,63,0.0,5.0,47,0.00,,SKC,0.00,VWS V14.01,2013-01-20 20:44:00,
2013-01-20 14:49:00,62.7,42.8,30.11,NE,44,1.0,3.0,48,0.00,,SKC,0.00,VWS V14.01,2013-01-20 20:49:00,
2013-01-20 14:54:00,62.7,42.8,30.11,NW,309,0.0,2.0,48,0.00,,SKC,0.00,VWS V14.01,2013-01-20 20:54:00,
2013-01-20 14:59:00,62.9,42.9,30.11,NW,304,3.0,3.0,48,0.00,,SKC,0.00,VWS V14.01,2013-01-20 20:59:00,
2013-01-20 15:04:00,62.9,42.9,30.10,NW,316,1.0,3.0,48,0.00,,SKC,0.00,VWS V14.01,2013-01-20 21:04:00,
2013-01-20 15:09:00,62.7,42.8,30.11,SW,234,4.0,4.0,48,0.00,,SKC,0.00,VWS V14.01,2013-01-20 21:09:00,
2013-01-20 15:14:00,62.5,43.1,30.11,WSW,257,2.0,3.0,49,0.00,,SKC,0.00,VWS V14.01,2013-01-20 21:14:00,
2013-01-20 15:19:00,62.6,42.7,30.10,West,268,3.0,4.0,48,0.00,,SKC,0.00,VWS V14.01,2013-01-20 21:19:00,
2013-01-20 15:24:00,62.7,43.3,30.10,West,268,0.0,0.0,49,0.00,,SKC,0.00,VWS V14.01,2013-01-20 21:24:00,
2013-01-20 15:29:00,63.0,43.6,30.10,West,277,0.0,3.0,49,0.00,,SKC,0.00,VWS V14.01,2013-01-20 21:29:00,
2013-01-20 15:34:00,62.5,43.1,30.10,West,259,4.0,7.0,49,0.00,,SKC,0.00,VWS V14.01,2013-01-20 21:34:00,
2013-01-20 15:39:00,62.1,42.7,30.10,WSW,238,0.0,3.0,49,0.00,,SKC,0.00,VWS V14.01,2013-01-20 21:39:00,
2013-01-20 15:44:00,62.2,42.8,30.10,WSW,238,0.0,1.0,49,0.00,,SKC,0.00,VWS V14.01,2013-01-20 21:44:00,
2013-01-20 15:49:00,62.3,43.4,30.10,WSW,238,0.0,0.0,50,0.00,,SKC,0.00,VWS V14.01,2013-01-20 21:49:00,
2013-01-20 15:54:00,62.7,43.3,30.10,WSW,238,1.0,1.0,49,0.00,,SKC,0.00,VWS V14.01,2013-01-20 21:54:00,
2013-01-20 15:59:00,62.9,42.9,30.10,WSW,238,0.0,0.0,48,0.00,,SKC,0.00,VWS V14.01,2013-01-20 21:59:00,
2013-01-20 16:04:00,62.9,43.5,30.10,WSW,238,1.0,2.0,49,0.00,,SKC,0.00,VWS V14.01,2013-01-20 22:04:00,
2013-01-20 16:09:00,62.0,42.6,30.10,WSW,238,2.0,2.0,49,0.00,,SKC,0.00,VWS V14.01,2013-01-20 22:09:00,
2013-01-20 16:14:00,61.7,42.4,30.10,WSW,238,0.0,2.0,49,0.00,,SKC,0.00,VWS V14.01,2013-01-20 22:14:00,
2013-01-20 16:19:00,61.4,42.6,30.10,WSW,238,0.0,1.0,50,0.00,,SKC,0.00,VWS V14.01,2013-01-20 22:19:00,
2013-01-20 16:24:00,61.0,42.8,30.10,WSW,238,0.0,0.0,51,0.00,,SKC,0.00,VWS V14.01,2013-01-20 22:24:00,
2013-01-20 16:29:00,60.4,42.2,30.10,WSW,238,0.0,1.0,51,0.00,,SKC,0.00,VWS V14.01,2013-01-20 22:29:00,
2013-01-20 16:34:00,59.7,42.6,30.10,WSW,238,0.0,0.0,53,0.00,,SKC,0.00,VWS V14.01,2013-01-20 22:34:00,
2013-01-20 16:39:00,59.0,42.4,30.11,WSW,238,0.0,0.0,54,0.00,,SKC,0.00,VWS V14.01,2013-01-20 22:39:00,
2013-01-20 16:45:00,58.5,42.4,30.11,WSW,238,0.0,0.0,55,0.00,,SKC,0.00,VWS V14.01,2013-01-20 22:45:00,
2013-01-20 16:50:00,58.0,41.9,30.11,WSW,238,0.0,1.0,55,0.00,,SKC,0.00,VWS V14.01,2013-01-20 22:50:00,
2013-01-20 16:55:00,58.0,42.4,30.10,WSW,238,0.0,0.0,56,0.00,,SKC,0.00,VWS V14.01,2013-01-20 22:55:00,
2013-01-20 17:00:00,57.6,42.5,30.11,WSW,238,0.0,0.0,57,0.00,,SKC,0.00,VWS V14.01,2013-01-20 23:00:00,
2013-01-20 17:05:00,57.3,42.2,30.10,WSW,238,0.0,0.0,57,0.00,,SKC,0.00,VWS V14.01,2013-01-20 23:05:00,
2013-01-20 17:10:00,56.4,41.8,30.11,WSW,238,0.0,0.0,58,0.00,,SKC,0.00,VWS V14.01,2013-01-20 23:10:00,
2013-01-20 17:15:00,55.9,41.8,30.11,WSW,238,0.0,0.0,59,0.00,,SKC,0.00,VWS V14.01,2013-01-20 23:15:00,
2013-01-20 17:20:00,55.5,41.9,30.11,WSW,238,0.0,0.0,60,0.00,,SKC,0.00,VWS V14.01,2013-01-20 23:20:00,
2013-01-20 17:25:00,55.1,41.9,30.11,WSW,238,0.0,0.0,61,0.00,,SKC,0.00,VWS V14.01,2013-01-20 23:25:00,
2013-01-20 17:30:00,54.8,41.6,30.11,WSW,238,0.0,0.0,61,0.00,,SKC,0.00,VWS V14.01,2013-01-20 23:30:00,
2013-01-20 17:35:00,54.4,41.2,30.11,WSW,238,0.0,0.0,61,0.00,,SKC,0.00,VWS V14.01,2013-01-20 23:35:00,
2013-01-20 17:41:00,54.0,41.7,30.11,WSW,238,0.0,0.0,63,0.00,,SKC,0.00,VWS V14.01,2013-01-20 23:41:00,
2013-01-20 17:46:00,53.3,41.5,30.11,WSW,238,0.0,0.0,64,0.00,,SKC,0.00,VWS V14.01,2013-01-20 23:46:00,
2013-01-20 17:51:00,52.8,41.0,30.11,WSW,238,0.0,0.0,64,0.00,,SKC,0.00,VWS V14.01,2013-01-20 23:51:00,
2013-01-20 17:56:00,52.4,41.4,30.11,WSW,238,0.0,0.0,66,0.00,,SKC,0.00,VWS V14.01,2013-01-20 23:56:00,
2013-01-20 18:01:00,51.9,40.9,30.11,WSW,238,0.0,0.0,66,0.00,,SKC,0.00,VWS V14.01,2013-01-21 00:01:00,
2013-01-20 18:06:00,51.3,40.7,30.11,WSW,238,0.0,0.0,67,0.00,,SKC,0.00,VWS V14.01,2013-01-21 00:06:00,
2013-01-20 18:12:00,50.7,40.9,30.11,WSW,238,0.0,0.0,69,0.00,,SKC,0.00,VWS V14.01,2013-01-21 00:12:00,
2013-01-20 18:17:00,50.1,40.7,30.11,WSW,238,0.0,0.0,70,0.00,,SKC,0.00,VWS V14.01,2013-01-21 00:17:00,
2013-01-20 18:22:00,49.2,40.6,30.11,WSW,238,0.0,0.0,72,0.00,,SKC,0.00,VWS V14.01,2013-01-21 00:22:00,
2013-01-20 18:27:00,48.6,40.3,30.11,WSW,238,0.0,0.0,73,0.00,,SKC,0.00,VWS V14.01,2013-01-21 00:27:00,
2013-01-20 18:32:00,48.1,40.2,30.12,WSW,238,0.0,0.0,74,0.00,,SKC,0.00,VWS V14.01,2013-01-21 00:32:00,
2013-01-20 18:38:00,47.6,40.1,30.12,WSW,238,0.0,0.0,75,0.00,,SKC,0.00,VWS V14.01,2013-01-21 00:38:00,
2013-01-20 18:43:00,47.2,40.0,30.12,WSW,238,0.0,0.0,76,0.00,,SKC,0.00,VWS V14.01,2013-01-21 00:43:00,
2013-01-20 18:48:00,46.8,39.7,30.11,WSW,238,0.0,0.0,76,0.00,,SKC,0.00,VWS V14.01,2013-01-21 00:48:00,
2013-01-20 18:53:00,46.4,39.6,30.11,WSW,238,0.0,0.0,77,0.00,,SKC,0.00,VWS V14.01,2013-01-21 00:53:00,
2013-01-20 18:58:00,46.0,39.5,30.12,WSW,238,0.0,0.0,78,0.00,,SKC,0.00,VWS V14.01,2013-01-21 00:58:00,
2013-01-20 19:03:00,45.8,39.3,30.12,WSW,238,0.0,0.0,78,0.00,,SKC,0.00,VWS V14.01,2013-01-21 01:03:00,
2013-01-20 19:08:00,45.2,39.1,30.11,WSW,238,0.0,0.0,79,0.00,,SKC,0.00,VWS V14.01,2013-01-21 01:08:00,
2013-01-20 19:13:00,45.0,39.2,30.11,WSW,238,0.0,0.0,80,0.00,,SKC,0.00,VWS V14.01,2013-01-21 01:13:00,
2013-01-20 19:18:00,44.7,38.9,30.12,WSW,238,0.0,0.0,80,0.00,,SKC,0.00,VWS V14.01,2013-01-21 01:18:00,
2013-01-20 19:24:00,44.3,38.8,30.12,WSW,238,0.0,0.0,81,0.00,,SKC,0.00,VWS V14.01,2013-01-21 01:24:00,
2013-01-20 19:29:00,44.1,38.7,30.12,WSW,238,0.0,0.0,81,0.00,,SKC,0.00,VWS V14.01,2013-01-21 01:29:00,
2013-01-20 19:34:00,43.8,38.4,30.12,WSW,238,0.0,0.0,81,0.00,,SKC,0.00,VWS V14.01,2013-01-21 01:34:00,
2013-01-20 19:39:00,43.6,38.8,30.12,WSW,238,0.0,0.0,83,0.00,,SKC,0.00,VWS V14.01,2013-01-21 01:39:00,
2013-01-20 19:44:00,43.4,38.6,30.12,WSW,238,0.0,0.0,83,0.00,,SKC,0.00,VWS V14.01,2013-01-21 01:44:00,
2013-01-20 19:49:00,43.1,38.6,30.12,WSW,238,0.0,0.0,84,0.00,,SKC,0.00,VWS V14.01,2013-01-21 01:49:00,
2013-01-20 19:54:00,42.8,38.3,30.12,WSW,238,0.0,0.0,84,0.00,,SKC,0.00,VWS V14.01,2013-01-21 01:54:00,
2013-01-20 19:59:00,42.7,38.5,30.12,WSW,238,0.0,0.0,85,0.00,,SKC,0.00,VWS V14.01,2013-01-21 01:59:00,
2013-01-20 20:04:00,42.6,38.4,30.12,WSW,238,0.0,0.0,85,0.00,,SKC,0.00,VWS V14.01,2013-01-21 02:04:00,
2013-01-20 20:09:00,42.4,38.5,30.12,WSW,238,0.0,0.0,86,0.00,,SKC,0.00,VWS V14.01,2013-01-21 02:09:00,
2013-01-20 20:14:00,42.2,38.3,30.12,WSW,238,0.0,0.0,86,0.00,,SKC,0.00,VWS V14.01,2013-01-21 02:14:00,
2013-01-20 20:19:00,42.0,38.1,30.12,WSW,238,0.0,0.0,86,0.00,,SKC,0.00,VWS V14.01,2013-01-21 02:19:00,
2013-01-20 20:24:00,41.8,37.9,30.12,WSW,238,0.0,0.0,86,0.00,,SKC,0.00,VWS V14.01,2013-01-21 02:24:00,
2013-01-20 20:29:00,41.7,37.8,30.12,WSW,238,0.0,0.0,86,0.00,,SKC,0.00,VWS V14.01,2013-01-21 02:29:00,
2013-01-20 20:34:00,41.6,37.7,30.12,WSW,238,0.0,0.0,86,0.00,,SKC,0.00,VWS V14.01,2013-01-21 02:34:00,
2013-01-20 20:39:00,41.3,37.4,30.12,WSW,238,0.0,0.0,86,0.00,,SKC,0.00,VWS V14.01,2013-01-21 02:39:00,
2013-01-20 20:44:00,41.0,37.4,30.12,WSW,238,0.0,0.0,87,0.00,,SKC,0.00,VWS V14.01,2013-01-21 02:44:00,
2013-01-20 20:49:00,40.7,37.4,30.11,WSW,238,0.0,0.0,88,0.00,,SKC,0.00,VWS V14.01,2013-01-21 02:49:00,
2013-01-20 20:54:00,40.5,37.2,30.12,WSW,238,0.0,0.0,88,0.00,,SKC,0.00,VWS V14.01,2013-01-21 02:54:00,
2013-01-20 20:59:00,40.2,36.9,30.12,WSW,238,0.0,0.0,88,0.00,,SKC,0.00,VWS V14.01,2013-01-21 02:59:00,
2013-01-20 21:04:00,40.2,36.9,30.12,WSW,238,0.0,0.0,88,0.00,,SKC,0.00,VWS V14.01,2013-01-21 03:04:00,
2013-01-20 21:10:00,39.8,36.5,30.12,WSW,238,0.0,0.0,88,0.00,,SKC,0.00,VWS V14.01,2013-01-21 03:10:00,
2013-01-20 21:15:00,39.7,36.7,30.12,WSW,238,0.0,0.0,89,0.00,,SKC,0.00,VWS V14.01,2013-01-21 03:15:00,
2013-01-20 21:20:00,39.8,37.1,30.12,WSW,238,0.0,0.0,90,0.00,,SKC,0.00,VWS V14.01,2013-01-21 03:20:00,
2013-01-20 21:25:00,39.7,37.0,30.12,WSW,238,0.0,0.0,90,0.00,,SKC,0.00,VWS V14.01,2013-01-21 03:25:00,
2013-01-20 21:30:00,39.6,36.9,30.12,WSW,238,0.0,0.0,90,0.00,,SKC,0.00,VWS V14.01,2013-01-21 03:30:00,
2013-01-20 21:35:00,39.5,36.8,30.12,WSW,238,0.0,0.0,90,0.00,,SKC,0.00,VWS V14.01,2013-01-21 03:35:00,
2013-01-20 21:40:00,39.4,36.7,30.12,WSW,238,0.0,0.0,90,0.00,,SKC,0.00,VWS V14.01,2013-01-21 03:40:00,
2013-01-20 21:45:00,39.2,36.5,30.12,WSW,238,0.0,0.0,90,0.00,,SKC,0.00,VWS V14.01,2013-01-21 03:45:00,
2013-01-20 21:50:00,39.0,36.3,30.12,WSW,238,0.0,0.0,90,0.00,,SKC,0.00,VWS V14.01,2013-01-21 03:50:00,
2013-01-20 21:55:00,39.0,36.3,30.12,WSW,238,0.0,0.0,90,0.00,,SKC,0.00,VWS V14.01,2013-01-21 03:55:00,
2013-01-20 22:00:00,38.8,36.1,30.12,WSW,238,0.0,0.0,90,0.00,,SKC,0.00,VWS V14.01,2013-01-21 04:00:00,
2013-01-20 22:05:00,38.7,36.0,30.12,WSW,238,0.0,0.0,90,0.00,,SKC,0.00,VWS V14.01,2013-01-21 04:05:00,
2013-01-20 22:10:00,38.3,35.9,30.12,WSW,238,0.0,0.0,91,0.00,,SKC,0.00,VWS V14.01,2013-01-21 04:10:00,
2013-01-20 22:15:00,38.1,35.7,30.12,WSW,238,0.0,0.0,91,0.00,,SKC,0.00,VWS V14.01,2013-01-21 04:15:00,
2013-01-20 22:20:00,37.9,35.5,30.12,WSW,238,0.0,0.0,91,0.00,,SKC,0.00,VWS V14.01,2013-01-21 04:20:00,
2013-01-20 22:25:00,37.7,35.3,30.12,WSW,238,0.0,0.0,91,0.00,,SKC,0.00,VWS V14.01,2013-01-21 04:25:00,
2013-01-20 22:30:00,37.7,35.3,30.12,WSW,238,0.0,0.0,91,0.00,,SKC,0.00,VWS V14.01,2013-01-21 04:30:00,
2013-01-20 22:35:00,37.6,35.2,30.12,WSW,238,0.0,0.0,91,0.00,,SKC,0.00,VWS V14.01,2013-01-21 04:35:00,
2013-01-20 22:41:00,37.4,35.0,30.12,WSW,238,0.0,0.0,91,0.00,,SKC,0.00,VWS V14.01,2013-01-21 04:41:00,
2013-01-20 22:46:00,37.2,34.8,30.11,WSW,238,0.0,0.0,91,0.00,,SKC,0.00,VWS V14.01,2013-01-21 04:46:00,
2013-01-20 22:51:00,37.0,34.6,30.11,WSW,238,0.0,0.0,91,0.00,,SKC,0.00,VWS V14.01,2013-01-21 04:51:00,
2013-01-20 22:56:00,36.9,34.8,30.11,WSW,238,0.0,0.0,92,0.00,,SKC,0.00,VWS V14.01,2013-01-21 04:56:00,
2013-01-20 23:00:00,36.8,34.7,30.11,WSW,238,0.0,0.0,92,0.00,,SKC,0.00,VWS V14.01,2013-01-21 05:00:00,
2013-01-20 23:01:00,36.8,34.7,30.11,WSW,238,0.0,0.0,92,0.00,,SKC,0.00,VWS V14.01,2013-01-21 05:01:00,
2013-01-20 23:02:00,36.8,34.7,30.11,WSW,238,0.0,0.0,92,0.00,,SKC,0.00,VWS V14.01,2013-01-21 05:02:00,
2013-01-20 23:03:00,36.8,34.7,30.11,WSW,238,0.0,0.0,92,0.00,,SKC,0.00,VWS V14.01,2013-01-21 05:03:00,
2013-01-20 23:08:00,37.0,34.9,30.11,WSW,238,0.0,0.0,92,0.00,,SKC,0.00,VWS V14.01,2013-01-21 05:08:00,
2013-01-20 23:13:00,37.0,34.9,30.11,WSW,238,0.0,0.0,92,0.00,,SKC,0.00,VWS V14.01,2013-01-21 05:13:00,
2013-01-20 23:18:00,36.9,34.8,30.10,WSW,238,0.0,0.0,92,0.00,,SKC,0.00,VWS V14.01,2013-01-21 05:18:00,
2013-01-20 23:23:00,36.8,35.0,30.10,WSW,238,0.0,0.0,93,0.00,,SKC,0.00,VWS V14.01,2013-01-21 05:23:00,
2013-01-20 23:28:00,36.8,34.7,30.10,WSW,238,0.0,0.0,92,0.00,,SKC,0.00,VWS V14.01,2013-01-21 05:28:00,
2013-01-20 23:33:00,36.5,34.4,30.10,WSW,238,0.0,0.0,92,0.00,,SKC,0.00,VWS V14.01,2013-01-21 05:33:00,
2013-01-20 23:38:00,36.3,34.2,30.10,WSW,238,0.0,0.0,92,0.00,,SKC,0.00,VWS V14.01,2013-01-21 05:38:00,
2013-01-20 23:43:00,36.2,34.4,30.10,WSW,238,0.0,0.0,93,0.00,,SKC,0.00,VWS V14.01,2013-01-21 05:43:00,
2013-01-20 23:48:00,36.3,34.5,30.10,WSW,238,0.0,0.0,93,0.00,,SKC,0.00,VWS V14.01,2013-01-21 05:48:00,
2013-01-20 23:53:00,36.2,34.4,30.10,WSW,238,0.0,0.0,93,0.00,,SKC,0.00,VWS V14.01,2013-01-21 05:53:00,
2013-01-20 23:58:00,35.9,33.8,30.10,WSW,238,0.0,0.0,92,0.00,,SKC,0.00,VWS V14.01,2013-01-21 05:58:00,